Time;durP1;ratioP1;P1;durP2;ratioP2;P2;SDS_P1;SDS_P2;PMS_P1;PMS_P2;Temp;Humidity;BMP_temperature;BMP_pressure;BME280_temperature;BME280_humidity;BME280_pressure;Samples;Min_cycle;Max_cycle;Signal;HPM_P1;HPM_P2
2024/04/06 10:17:16;;;;;;;3.20;1.70;;;;;;;17.93;60.87;99185.08;107094;1263;188912;-75
2024/04/06 10:20:32;;;;;;;3.30;2.00;;;;;;;17.95;60.71;99189.42;107613;1244;95603;-79
2024/04/06 10:24:10;;;;;;;4.80;2.10;;;;;;;17.82;59.35;99199.88;108532;1252;108219;-76
2024/04/06 10:26:46;;;;;;;3.70;1.90;;;;;;;17.79;59.11;99200.10;108410;1245;95185;-76
2024/04/06 10:29:13;;;;;;;3.20;1.70;;;;;;;17.81;59.22;99200.65;108768;1243;107525;-76
2024/04/06 10:31:41;;;;;;;3.70;1.50;;;;;;;17.85;59.00;99200.08;108045;1241;95232;-76
2024/04/06 10:34:14;;;;;;;2.00;1.40;;;;;;;17.86;58.78;99199.48;108259;1246;95140;-76
2024/04/06 10:36:41;;;;;;;2.90;1.90;;;;;;;17.87;58.45;99199.13;108302;1240;108393;-76
2024/04/06 10:39:08;;;;;;;4.60;2.00;;;;;;;17.89;58.28;99194.12;108876;1238;95328;-76
2024/04/06 10:41:37;;;;;;;4.70;2.10;;;;;;;17.94;58.01;99195.80;109535;1238;97047;-77
2024/04/06 10:44:04;;;;;;;4.30;1.90;;;;;;;17.96;57.19;99199.17;108348;1240;97465;-76
2024/04/06 10:46:31;;;;;;;3.30;2.00;;;;;;;17.99;57.16;99197.39;108998;1240;96665;-76
2024/04/06 10:48:57;;;;;;;3.80;1.80;;;;;;;18.05;56.91;99200.23;108220;1238;96691;-76
2024/04/06 10:51:25;;;;;;;3.90;1.70;;;;;;;18.07;56.66;99196.81;108518;1234;96605;-75
2024/04/06 10:53:54;;;;;;;5.10;1.60;;;;;;;18.15;56.30;99204.30;110371;1236;96582;-75
2024/04/06 10:56:21;;;;;;;2.90;1.60;;;;;;;18.24;56.23;99197.59;110110;1231;96649;-78
2024/04/06 10:58:48;;;;;;;3.00;1.40;;;;;;;18.26;55.36;99201.86;109026;1232;96598;-76
2024/04/06 11:01:17;;;;;;;3.80;1.70;;;;;;;18.29;55.33;99202.12;108807;1234;96570;-77
2024/04/06 11:03:47;;;;;;;3.90;1.60;;;;;;;18.31;55.30;99200.34;108573;1232;97527;-78
2024/04/06 11:06:14;;;;;;;4.60;2.40;;;;;;;18.25;54.44;99193.91;108444;1235;107572;-76
2024/04/06 11:08:45;;;;;;;4.80;1.80;;;;;;;18.22;54.35;99200.38;110231;1234;96537;-76
2024/04/06 11:11:16;;;;;;;5.50;3.30;;;;;;;18.20;54.33;99197.30;109463;1237;97518;-75
2024/04/06 11:13:42;;;;;;;8.20;3.10;;;;;;;18.20;54.48;99196.09;111427;1230;109746;-76
2024/04/06 11:16:09;;;;;;;3.20;1.90;;;;;;;18.19;54.09;99196.32;110478;1236;97869;-75
2024/04/06 11:18:41;;;;;;;4.30;1.90;;;;;;;18.16;53.98;99192.45;108955;1234;96589;-76
2024/04/06 11:21:22;;;;;;;5.40;2.30;;;;;;;18.19;54.05;99195.10;110105;1234;96591;-75
2024/04/06 11:23:49;;;;;;;3.40;1.60;;;;;;;18.20;53.36;99197.16;110524;1232;96575;-75
2024/04/06 11:26:21;;;;;;;5.00;1.60;;;;;;;18.21;52.96;99189.27;108807;1234;96529;-73
2024/04/06 11:28:49;;;;;;;4.40;1.50;;;;;;;18.24;52.67;99187.06;108495;1235;96679;-76
2024/04/06 11:31:19;;;;;;;3.60;1.40;;;;;;;18.31;52.97;99189.14;108524;1232;107328;-76
2024/04/06 11:33:46;;;;;;;2.70;1.60;;;;;;;18.37;52.83;99185.90;108398;1231;96648;-74
2024/04/06 11:36:13;;;;;;;2.70;1.60;;;;;;;18.41;52.77;99180.58;109175;1231;96614;-76
2024/04/06 11:38:39;;;;;;;16.20;7.30;;;;;;;18.46;52.91;99184.58;108590;1234;97841;-73
2024/04/06 11:41:06;;;;;;;8.80;4.80;;;;;;;18.55;53.12;99181.63;108405;1234;97501;-76
2024/04/06 11:44:18;;;;;;;5.70;2.60;;;;;;;18.67;53.23;99180.60;108859;1231;96607;-76
2024/04/06 11:46:46;;;;;;;7.40;3.40;;;;;;;18.71;52.51;99182.48;108588;1234;97836;-74
2024/04/06 11:49:29;;;;;;;7.40;2.90;;;;;;;18.63;51.91;99183.75;109091;1237;112208;-75
2024/04/06 11:51:56;;;;;;;9.70;3.00;;;;;;;18.60;52.28;99184.17;111511;1230;94643;-74
2024/04/06 11:54:24;;;;;;;3.60;2.20;;;;;;;18.62;51.96;99184.41;110266;1236;96598;-75
2024/04/06 11:56:52;;;;;;;4.20;2.40;;;;;;;18.59;51.82;99178.41;108596;1235;97523;-74
2024/04/06 11:59:19;;;;;;;5.60;2.30;;;;;;;18.57;51.91;99179.54;108796;1231;96542;-74
2024/04/06 12:01:45;;;;;;;7.80;4.60;;;;;;;18.55;51.72;99172.66;108437;1232;97197;-73
2024/04/06 12:04:12;;;;;;;5.00;2.60;;;;;;;18.56;51.91;99174.33;109022;1234;96599;-74
2024/04/06 12:06:39;;;;;;;5.50;2.90;;;;;;;18.57;51.63;99176.61;108517;1245;97473;-75
2024/04/06 12:09:05;;;;;;;8.30;3.70;;;;;;;18.48;50.97;99180.08;108722;1234;96721;-74
2024/04/06 12:11:33;;;;;;;12.50;4.40;;;;;;;18.43;51.31;99179.16;108396;1243;109915;-74
2024/04/06 12:14:00;;;;;;;7.30;3.50;;;;;;;18.45;51.68;99177.67;108962;1234;96611;-73
2024/04/06 12:16:27;;;;;;;5.70;2.30;;;;;;;18.46;51.56;99180.09;109598;1234;107019;-76
2024/04/06 12:18:56;;;;;;;3.70;2.20;;;;;;;18.48;51.75;99181.52;109126;1232;97127;-72
2024/04/06 12:21:23;;;;;;;4.70;2.10;;;;;;;18.51;51.53;99181.71;109012;1235;97523;-76
2024/04/06 12:23:50;;;;;;;6.00;2.70;;;;;;;18.51;50.92;99188.91;108855;1234;109598;-75
2024/04/06 12:26:17;;;;;;;4.10;2.30;;;;;;;18.45;51.07;99185.95;110352;1234;96586;-76
2024/04/06 12:28:48;;;;;;;4.10;2.30;;;;;;;18.39;50.74;99180.59;108554;1237;107497;-78
2024/04/06 12:31:19;;;;;;;3.70;2.10;;;;;;;18.34;50.78;99183.16;108347;1237;96576;-75
2024/04/06 12:33:45;;;;;;;5.00;2.40;;;;;;;18.33;50.89;99184.84;109626;1234;96651;-75
2024/04/06 12:36:12;;;;;;;3.40;2.10;;;;;;;18.35;51.20;99182.15;108552;1234;96577;-77
2024/04/06 12:38:39;;;;;;;4.20;2.50;;;;;;;18.38;51.18;99175.87;108895;1232;96524;-75
2024/04/06 12:41:06;;;;;;;3.30;2.20;;;;;;;18.43;51.36;99173.92;109107;1234;97044;-79
2024/04/06 12:43:32;;;;;;;6.70;3.30;;;;;;;18.51;51.33;99176.59;108584;1234;96666;-80
2024/04/06 12:46:01;;;;;;;8.40;3.60;;;;;;;18.55;51.36;99181.09;108698;1232;97498;-78
2024/04/06 12:48:28;;;;;;;4.00;2.50;;;;;;;18.62;51.42;99179.16;109787;1236;96647;-77
2024/04/06 12:50:55;;;;;;;4.30;2.40;;;;;;;18.69;51.34;99180.75;108740;1234;96638;-77
2024/04/06 12:53:21;;;;;;;5.00;2.40;;;;;;;18.76;51.34;99181.98;108552;1234;96734;-75
2024/04/06 12:55:48;;;;;;;5.80;2.40;;;;;;;18.80;51.39;99183.79;109053;1234;97925;-76
2024/04/06 12:58:15;;;;;;;3.60;1.90;;;;;;;18.84;51.40;99183.50;108465;1235;97497;-76
2024/04/06 13:00:42;;;;;;;4.80;2.20;;;;;;;18.84;51.32;99182.05;108955;1234;96596;-75
2024/04/06 13:03:25;;;;;;;5.10;2.70;;;;;;;18.86;51.39;99187.98;102081;1295;636053;-76
2024/04/06 13:05:53;;;;;;;3.10;2.00;;;;;;;18.83;51.22;99195.29;104671;1270;95653;-74
2024/04/06 13:08:21;;;;;;;4.30;2.20;;;;;;;18.81;51.25;99197.54;104478;1271;96595;-77
2024/04/06 13:10:49;;;;;;;3.50;2.20;;;;;;;18.79;51.51;99189.63;104830;1279;108954;-75
2024/04/06 13:13:17;;;;;;;3.80;2.10;;;;;;;18.77;51.36;99193.02;104564;1279;95258;-74
2024/04/06 13:15:47;;;;;;;4.50;2.10;;;;;;;18.67;50.94;99194.65;104659;1270;107554;-78
2024/04/06 13:18:15;;;;;;;3.40;1.70;;;;;;;18.52;50.78;99194.34;104798;1275;152872;-74
2024/04/06 13:20:47;;;;;;;3.00;1.70;;;;;;;18.44;50.98;99195.67;106123;1262;95343;-69
2024/04/06 13:23:14;;;;;;;2.50;1.70;;;;;;;18.42;51.20;99200.38;104724;1267;108614;-70
2024/04/06 13:25:42;;;;;;;2.40;1.60;;;;;;;18.43;51.28;99194.92;105355;1267;96067;-69
2024/04/06 13:28:09;;;;;;;7.10;2.20;;;;;;;18.43;51.42;99195.60;105243;1269;107637;-70
2024/04/06 13:30:37;;;;;;;4.00;2.10;;;;;;;18.42;51.39;99196.14;104523;1267;96695;-70
2024/04/06 13:33:05;;;;;;;2.60;1.70;;;;;;;18.44;51.33;99195.05;106476;1254;96687;-71
2024/04/06 13:35:32;;;;;;;3.70;1.70;;;;;;;18.42;51.39;99194.44;105394;1253;109713;-70
2024/04/06 13:38:00;;;;;;;3.90;1.90;;;;;;;18.45;51.38;99198.70;105558;1251;97446;-70
2024/04/06 13:40:28;;;;;;;3.60;2.10;;;;;;;18.44;51.46;99193.89;106139;1254;107673;-69
2024/04/06 13:42:57;;;;;;;3.80;1.70;;;;;;;18.47;51.54;99199.19;107366;1251;97935;-71
2024/04/06 13:45:24;;;;;;;3.20;2.00;;;;;;;18.50;51.60;99197.86;105699;1254;96603;-69
2024/04/06 13:47:53;;;;;;;3.60;2.20;;;;;;;18.51;51.57;99201.13;106449;1250;109926;-70
2024/04/06 13:50:21;;;;;;;2.70;1.90;;;;;;;18.51;51.55;99199.92;107612;1254;96551;-73
2024/04/06 13:52:48;;;;;;;5.70;3.10;;;;;;;18.50;51.48;99201.94;105362;1254;107675;-70
2024/04/06 13:55:16;;;;;;;4.20;2.40;;;;;;;18.51;51.63;99199.86;108631;1254;94255;-71
2024/04/06 13:57:51;;;;;;;8.60;4.20;;;;;;;18.53;51.79;99202.66;106553;1256;96633;-70
2024/04/06 14:00:19;;;;;;;8.30;5.40;;;;;;;18.58;51.85;99202.52;106415;1251;109434;-70
2024/04/06 14:02:46;;;;;;;5.60;4.40;;;;;;;18.62;51.72;99203.58;105894;1252;96638;-72
2024/04/06 14:05:15;;;;;;;4.10;2.50;;;;;;;18.59;51.77;99197.39;107274;1253;107602;-72
2024/04/06 14:07:42;;;;;;;12.40;11.10;;;;;;;18.60;51.81;99195.36;105386;1257;96643;-72
2024/04/06 14:10:10;;;;;;;3.60;2.10;;;;;;;18.59;51.70;99199.02;105447;1254;96618;-72
2024/04/06 14:12:38;;;;;;;4.50;2.50;;;;;;;18.56;51.54;99199.20;106469;1252;109152;-71
2024/04/06 14:15:07;;;;;;;26.40;12.40;;;;;;;18.51;51.63;99198.30;105592;1253;96535;-72
2024/04/06 14:17:35;;;;;;;5.10;2.70;;;;;;;18.47;51.61;99192.41;105711;1254;107511;-71
2024/04/06 14:20:08;;;;;;;5.40;2.80;;;;;;;18.45;51.82;99194.73;105435;1254;97943;-74
2024/04/06 14:22:38;;;;;;;41.50;27.20;;;;;;;18.44;51.84;99196.64;105572;1257;96582;-72
2024/04/06 14:25:06;;;;;;;10.80;5.10;;;;;;;18.44;51.99;99196.27;106610;1252;110394;-72
2024/04/06 14:27:34;;;;;;;6.50;3.50;;;;;;;18.44;52.04;99196.08;105070;1258;97970;-72
2024/04/06 14:30:22;;;;;;;7.00;3.20;;;;;;;18.40;52.08;99195.95;105134;1267;107614;-72
2024/04/06 14:32:49;;;;;;;6.10;4.00;;;;;;;18.35;52.01;99199.86;105351;1256;97205;-71
2024/04/06 14:35:17;;;;;;;6.60;3.70;;;;;;;18.30;52.06;99197.73;105892;1258;96525;-73
2024/04/06 14:37:45;;;;;;;6.10;3.80;;;;;;;18.23;52.10;99193.59;106005;1251;109853;-71
2024/04/06 14:40:12;;;;;;;172.50;105.50;;;;;;;18.18;52.27;99189.75;105572;1258;96690;-73
2024/04/06 14:42:40;;;;;;;32.20;18.90;;;;;;;18.16;52.42;99192.09;105065;1260;107820;-71
2024/04/06 14:45:08;;;;;;;12.60;6.80;;;;;;;18.15;52.38;99191.34;105266;1259;96601;-73
2024/04/06 14:47:35;;;;;;;8.40;4.80;;;;;;;18.13;52.47;99192.98;108355;1253;94574;-72
2024/04/06 14:50:03;;;;;;;7.60;3.50;;;;;;;18.11;52.60;99190.52;105706;1252;109954;-72
2024/04/06 14:52:31;;;;;;;7.00;3.80;;;;;;;18.08;52.64;99187.98;105492;1257;96681;-72
2024/04/06 14:55:00;;;;;;;5.00;2.60;;;;;;;18.07;52.53;99189.85;106048;1252;107463;-70
2024/04/06 14:57:28;;;;;;;10.10;5.80;;;;;;;18.05;52.84;99192.20;105688;1252;97897;-72
2024/04/06 14:59:55;;;;;;;88.10;47.70;;;;;;;18.05;52.79;99190.79;106890;1257;96556;-71
2024/04/06 15:02:23;;;;;;;22.10;11.50;;;;;;;18.05;52.89;99192.58;106675;1256;110076;-70
2024/04/06 15:04:51;;;;;;;53.50;29.50;;;;;;;18.05;52.96;99191.52;105344;1256;96614;-72
2024/04/06 15:07:19;;;;;;;29.90;14.80;;;;;;;18.05;53.01;99197.42;105383;1256;107543;-72
2024/04/06 15:10:02;;;;;;;76.90;56.30;;;;;;;18.04;53.02;99202.51;105377;1253;96639;-72
2024/04/06 15:12:30;;;;;;;20.50;13.50;;;;;;;18.01;53.05;99202.29;106679;1252;96581;-73
2024/04/06 15:14:58;;;;;;;16.30;11.50;;;;;;;17.97;53.04;99200.87;105525;1253;108587;-70
2024/04/06 15:17:26;;;;;;;8.30;5.40;;;;;;;17.94;53.31;99201.70;105611;1256;96560;-72
2024/04/06 15:19:54;;;;;;;8.30;3.90;;;;;;;17.91;53.37;99201.23;105439;1257;107620;-71
2024/04/06 15:22:22;;;;;;;6.00;3.50;;;;;;;17.91;53.28;99202.41;105685;1257;96650;-74
2024/04/06 15:24:50;;;;;;;61.10;32.10;;;;;;;17.90;53.41;99203.75;105407;1256;96694;-71
2024/04/06 15:27:17;;;;;;;13.10;5.70;;;;;;;17.89;53.35;99201.14;105201;1267;109515;-71
2024/04/06 15:29:45;;;;;;;10.10;6.40;;;;;;;17.87;53.43;99201.50;105665;1254;97485;-71
2024/04/06 15:32:13;;;;;;;12.10;6.30;;;;;;;17.85;53.55;99200.64;105351;1267;107601;-75
2024/04/06 15:34:40;;;;;;;27.00;15.80;;;;;;;17.82;53.71;99196.65;105221;1257;96656;-71
2024/04/06 15:37:10;;;;;;;16.40;8.70;;;;;;;17.79;53.74;99200.69;105443;1256;96627;-72
2024/04/06 15:39:37;;;;;;;31.10;16.90;;;;;;;17.76;53.75;99202.48;106037;1254;109893;-69
2024/04/06 15:42:05;;;;;;;21.30;10.40;;;;;;;17.73;53.66;99204.55;105500;1257;96738;-73
2024/04/06 15:44:33;;;;;;;19.40;10.80;;;;;;;17.70;53.77;99205.30;106840;1252;107711;-69
2024/04/06 15:47:05;;;;;;;16.20;9.10;;;;;;;17.67;53.87;99207.39;106631;1253;96601;-74
2024/04/06 15:49:33;;;;;;;21.70;14.50;;;;;;;17.64;53.99;99211.09;107289;1252;96570;-70
2024/04/06 15:52:01;;;;;;;14.50;8.70;;;;;;;17.62;54.06;99212.05;108683;1251;109896;-71
2024/04/06 15:54:29;;;;;;;16.80;8.80;;;;;;;17.60;54.14;99213.30;105956;1253;96608;-70
2024/04/06 15:56:56;;;;;;;18.20;12.10;;;;;;;17.59;53.97;99214.00;105468;1253;108074;-70
2024/04/06 15:59:24;;;;;;;16.30;8.50;;;;;;;17.58;54.13;99216.98;105595;1253;96673;-71
2024/04/06 16:01:52;;;;;;;15.90;8.60;;;;;;;17.55;54.41;99213.63;105279;1256;96560;-69
2024/04/06 16:04:20;;;;;;;18.20;9.90;;;;;;;17.53;54.43;99214.01;105617;1256;110005;-72
2024/04/06 16:06:48;;;;;;;24.20;11.30;;;;;;;17.50;54.29;99207.50;105230;1257;96691;-70
2024/04/06 16:09:16;;;;;;;19.50;10.30;;;;;;;17.47;54.40;99210.17;106509;1254;106228;-69
2024/04/06 16:11:43;;;;;;;25.20;11.80;;;;;;;17.42;54.23;99206.65;105367;1257;96691;-69
2024/04/06 16:14:11;;;;;;;21.60;11.50;;;;;;;17.38;54.38;99204.89;106139;1253;97553;-69
2024/04/06 16:16:39;;;;;;;24.50;13.20;;;;;;;17.33;54.48;99213.34;105695;1256;109865;-72
2024/04/06 16:19:09;;;;;;;22.70;11.60;;;;;;;17.29;54.68;99211.79;105765;1256;96643;-72
2024/04/06 16:21:37;;;;;;;30.70;14.10;;;;;;;17.24;54.65;99212.86;105357;1256;107594;-69
2024/04/06 16:24:05;;;;;;;28.70;13.90;;;;;;;17.21;54.70;99210.89;105818;1257;96845;-71
2024/04/06 16:26:32;;;;;;;19.40;10.90;;;;;;;17.16;54.68;99206.67;105899;1256;96595;-70
2024/04/06 16:29:00;;;;;;;20.90;10.00;;;;;;;17.12;54.71;99203.53;105284;1258;109400;-69
2024/04/06 16:31:27;;;;;;;18.70;9.10;;;;;;;17.09;54.80;99204.35;105729;1252;97832;-70
2024/04/06 16:33:55;;;;;;;17.30;8.70;;;;;;;17.05;54.89;99210.82;105587;1254;107693;-71
2024/04/06 16:36:23;;;;;;;16.10;9.10;;;;;;;17.00;55.10;99207.16;105206;1253;98016;-72
2024/04/06 16:38:52;;;;;;;16.10;7.90;;;;;;;16.95;54.85;99208.02;106049;1252;96681;-70
2024/04/06 16:41:19;;;;;;;16.20;8.30;;;;;;;16.90;54.97;99206.81;105385;1253;109611;-74
2024/04/06 16:43:47;;;;;;;15.50;7.90;;;;;;;16.84;55.02;99211.00;105960;1256;97959;-72
2024/04/06 16:46:15;;;;;;;14.10;7.80;;;;;;;16.78;55.09;99218.08;105298;1256;107691;-73
2024/04/06 16:48:42;;;;;;;19.60;10.30;;;;;;;16.68;55.37;99217.55;106518;1256;97104;-72
2024/04/06 16:51:10;;;;;;;21.90;10.30;;;;;;;16.58;55.35;99220.99;105495;1256;96523;-73
2024/04/06 16:53:39;;;;;;;23.40;14.00;;;;;;;16.49;55.34;99221.33;105460;1252;109921;-71
2024/04/06 16:56:07;;;;;;;23.90;13.50;;;;;;;16.40;55.53;99221.98;105345;1254;97913;-74
2024/04/06 16:58:34;;;;;;;21.90;12.30;;;;;;;16.31;55.39;99224.80;105905;1252;106448;-71
2024/04/06 17:01:02;;;;;;;20.20;12.60;;;;;;;16.21;55.52;99231.13;105836;1253;98733;-74
2024/04/06 17:03:30;;;;;;;22.20;13.30;;;;;;;16.12;55.40;99237.31;105162;1257;96620;-73
2024/04/06 17:05:59;;;;;;;17.80;12.40;;;;;;;16.02;55.64;99238.59;105467;1256;109929;-73
2024/04/06 17:08:27;;;;;;;24.70;14.10;;;;;;;15.90;55.67;99236.85;105442;1254;96628;-72
2024/04/06 17:10:55;;;;;;;25.80;17.30;;;;;;;15.79;55.77;99240.99;105319;1266;107654;-71
2024/04/06 17:52:56;;;;;;;32.80;19.90;;;;;;;15.19;56.33;99284.38;107709;1260;647185;-79
2024/04/06 17:55:53;;;;;;;;;;;;;;;;;;;;;
2024/04/06 17:58:49;;;;;;;35.80;19.30;;;;;;;14.82;57.10;99297.07;107884;1245;107524;-81
2024/04/06 18:02:02;;;;;;;35.30;19.80;;;;;;;14.72;57.12;99294.77;108044;1248;95482;-81
2024/04/06 18:21:58;;;;;;;41.10;22.10;;;;;;;14.34;57.78;99316.65;106363;1263;95257;-82
2024/04/06 18:25:09;;;;;;;;;;;;;;;;;;;;;
2024/04/06 18:28:44;;;;;;;39.40;24.10;;;;;;;14.00;58.07;99329.69;108320;1240;95730;-82
2024/04/06 18:31:15;;;;;;;48.00;27.10;;;;;;;13.88;58.04;99329.93;108706;1232;106600;-81
2024/04/06 18:43:30;;;;;;;43.40;24.10;;;;;;;13.42;58.48;99334.13;107263;1254;108434;-82
2024/04/06 18:47:25;;;;;;;;;;;;;;;;;;;;;
2024/04/06 18:58:06;;;;;;;62.60;35.50;;;;;;;13.03;58.65;99355.21;109190;1237;96585;-81
2024/04/06 19:00:39;;;;;;;55.20;29.40;;;;;;;12.99;58.69;99358.17;108536;1237;109310;-82
2024/04/06 19:03:47;;;;;;;54.70;31.20;;;;;;;12.95;58.81;99355.06;109197;1232;96606;-84
2024/04/06 19:06:54;;;;;;;;;;;;;;;;;;;;;
2024/04/06 19:09:47;;;;;;;46.20;26.80;;;;;;;12.76;58.83;99366.17;109259;1231;96569;-79
2024/04/06 19:16:06;;;;;;;52.80;28.90;;;;;;;12.57;59.05;99369.05;108135;1244;111160;-80
2024/04/06 19:19:23;;;;;;;55.20;28.90;;;;;;;12.47;59.04;99367.59;109235;1234;97442;-80
2024/04/06 19:23:00;;;;;;;43.20;24.30;;;;;;;12.38;59.03;99373.48;110078;1234;108109;-82
2024/04/06 19:30:27;;;;;;;;;;;;;;;12.16;59.32;99375.10;108606;1245;96687;-82
2024/04/06 19:37:22;;;;;;;33.30;18.40;;;;;;;11.98;59.41;99373.73;109289;1234;96551;-80
2024/04/06 19:40:25;;;;;;;31.50;18.20;;;;;;;11.88;59.54;99375.83;109407;1240;107686;-81
2024/04/06 19:44:01;;;;;;;28.90;15.60;;;;;;;11.80;59.47;99376.65;109641;1242;97514;-84
2024/04/06 19:47:59;;;;;;;;;;;;;;;;;;;;;
